createdAt,value
2018-12-30T00:00:13.623Z,1.41
2018-12-30T00:02:42.326Z,1.19
2018-12-30T00:05:11.565Z,1.26
2018-12-30T00:07:40.542Z,1.47
2018-12-30T00:10:09.242Z,1.53
2018-12-30T00:12:37.924Z,1.44
2018-12-30T00:15:06.667Z,1.49
2018-12-30T00:17:35.372Z,1.56
2018-12-30T00:20:04.641Z,1.44
2018-12-30T00:22:33.395Z,1.25
2018-12-30T00:25:02.151Z,1.05
2018-12-30T00:27:30.843Z,0.88
2018-12-30T00:29:59.689Z,0.75
2018-12-30T00:32:28.375Z,0.52
2018-12-30T00:34:57.053Z,0.38
2018-12-30T00:37:26.200Z,0.36
2018-12-30T00:39:54.884Z,0.24
2018-12-30T00:42:23.570Z,0.19
2018-12-30T00:44:52.773Z,0.06
2018-12-30T00:47:21.451Z,0.00
2018-12-30T00:49:50.171Z,0.11
2018-12-30T00:52:18.903Z,0.21
2018-12-30T00:54:47.611Z,0.36
2018-12-30T00:57:16.284Z,0.54
2018-12-30T00:59:45.209Z,0.63
2018-12-30T01:02:13.897Z,0.82
2018-12-30T01:04:42.600Z,0.86
2018-12-30T01:07:11.662Z,1.03
2018-12-30T01:09:40.341Z,1.09
2018-12-30T01:12:09.027Z,0.97
2018-12-30T01:14:37.861Z,1.09
2018-12-30T01:17:06.544Z,1.26
2018-12-30T01:19:35.234Z,1.25
2018-12-30T01:22:04.071Z,1.29
2018-12-30T01:24:32.751Z,1.24
2018-12-30T01:27:01.712Z,1.25
2018-12-30T01:29:30.538Z,1.19
2018-12-30T01:31:59.233Z,1.32
2018-12-30T01:34:27.923Z,1.43
2018-12-30T01:36:56.736Z,1.42
2018-12-30T01:39:25.411Z,1.19
2018-12-30T01:41:54.093Z,1.13
2018-12-30T01:44:22.944Z,0.95
2018-12-30T01:46:51.640Z,0.98
2018-12-30T01:49:20.328Z,0.99
2018-12-30T01:51:49.146Z,0.92
2018-12-30T01:54:18.019Z,1.00
2018-12-30T01:56:46.708Z,1.07
2018-12-30T01:59:15.645Z,1.01
2018-12-30T02:01:44.340Z,1.03
2018-12-30T02:04:13.024Z,1.08
2018-12-30T02:06:42.241Z,0.97
2018-12-30T02:09:10.931Z,0.87
2018-12-30T02:11:39.608Z,0.76
2018-12-30T02:14:08.330Z,0.64
2018-12-30T02:16:37.014Z,0.58
2018-12-30T02:19:05.997Z,0.52
2018-12-30T02:21:41.095Z,0.44
2018-12-30T02:24:05.504Z,0.44
2018-12-30T02:26:34.260Z,0.30
2018-12-30T02:29:03.086Z,0.32
2018-12-30T02:31:32.213Z,0.12
2018-12-30T02:34:00.907Z,-0.03
2018-12-30T02:36:29.752Z,-0.13
2018-12-30T02:38:58.437Z,-0.24
2018-12-30T02:41:27.132Z,-0.34
2018-12-30T02:43:56.430Z,-0.40
2018-12-30T02:46:25.112Z,-0.44
2018-12-30T02:48:53.924Z,-0.40
2018-12-30T02:51:22.765Z,-0.25
2018-12-30T02:53:51.452Z,-0.08
2018-12-30T02:56:20.520Z,-0.06
2018-12-30T02:58:49.264Z,-0.04
2018-12-30T03:01:17.962Z,-0.01
2018-12-30T03:03:46.634Z,0.23
2018-12-30T03:06:15.523Z,0.38
2018-12-30T03:08:44.339Z,0.64
2018-12-30T03:11:13.034Z,0.64
2018-12-30T03:13:41.834Z,0.88
2018-12-30T03:16:10.520Z,0.86
2018-12-30T03:18:39.211Z,1.09
2018-12-30T03:21:08.023Z,0.96
2018-12-30T03:23:36.711Z,1.02
2018-12-30T03:26:05.396Z,1.14
2018-12-30T03:28:34.228Z,1.18
2018-12-30T03:31:02.924Z,1.20
2018-12-30T03:33:31.599Z,1.26
2018-12-30T03:36:00.554Z,1.39
2018-12-30T03:38:29.245Z,1.57
2018-12-30T03:40:58.023Z,1.59
2018-12-30T03:43:27.106Z,1.83
2018-12-30T03:45:55.751Z,1.78
2018-12-30T03:48:24.432Z,1.81
2018-12-30T03:50:53.601Z,1.77
2018-12-30T03:53:22.287Z,1.88
2018-12-30T03:55:50.972Z,1.83
2018-12-30T03:58:19.702Z,1.87
2018-12-30T04:00:48.387Z,1.91
2018-12-30T04:03:17.087Z,1.90
2018-12-30T04:05:45.907Z,1.72
2018-12-30T04:08:14.595Z,1.77
2018-12-30T04:10:43.281Z,1.91
2018-12-30T04:13:12.109Z,1.79
2018-12-30T04:15:40.792Z,1.75
2018-12-30T04:18:09.489Z,1.87
2018-12-30T04:20:38.228Z,1.88
2018-12-30T04:23:06.904Z,1.81
2018-12-30T04:25:35.649Z,1.72
2018-12-30T04:28:04.557Z,1.72
2018-12-30T04:30:33.286Z,1.80
2018-12-30T04:33:01.935Z,1.68
2018-12-30T04:35:30.875Z,1.60
2018-12-30T04:37:59.579Z,1.54
2018-12-30T04:40:28.249Z,1.53
2018-12-30T04:42:57.006Z,1.46
2018-12-30T04:45:25.699Z,1.32
2018-12-30T04:47:54.398Z,1.35
2018-12-30T04:50:23.125Z,1.32
2018-12-30T04:52:51.945Z,1.31
2018-12-30T04:55:20.655Z,1.18
2018-12-30T04:57:49.591Z,1.13
2018-12-30T05:00:18.272Z,0.95
2018-12-30T05:02:46.956Z,1.00
2018-12-30T05:05:16.111Z,1.00
2018-12-30T05:07:44.809Z,0.90
2018-12-30T05:10:13.476Z,0.82
2018-12-30T05:12:42.284Z,0.84
2018-12-30T05:15:10.968Z,0.86
2018-12-30T05:17:39.666Z,0.78
2018-12-30T05:20:08.706Z,0.59
2018-12-30T05:22:37.401Z,0.65
2018-12-30T05:25:06.395Z,0.54
2018-12-30T05:27:35.244Z,0.54
2018-12-30T05:30:04.705Z,0.64
2018-12-30T05:32:33.388Z,0.53
2018-12-30T05:35:02.201Z,0.61
2018-12-30T05:37:30.905Z,0.54
2018-12-30T05:39:59.581Z,0.46
2018-12-30T05:42:28.584Z,0.43
2018-12-30T05:44:57.264Z,0.41
2018-12-30T05:47:25.951Z,0.40
2018-12-30T05:49:54.701Z,0.45
2018-12-30T05:52:23.384Z,0.47
2018-12-30T05:54:52.113Z,0.32
2018-12-30T05:57:20.847Z,0.23
2018-12-30T05:59:49.556Z,0.31
2018-12-30T06:02:18.230Z,0.23
2018-12-30T06:04:46.965Z,0.31
2018-12-30T06:07:15.646Z,0.27
2018-12-30T06:09:44.335Z,0.32
2018-12-30T06:12:13.067Z,0.19
2018-12-30T06:14:41.751Z,0.33
2018-12-30T06:17:10.444Z,0.36
2018-12-30T06:19:39.178Z,0.32
2018-12-30T06:22:07.868Z,0.40
2018-12-30T06:24:36.565Z,0.47
2018-12-30T06:27:05.546Z,0.51
2018-12-30T06:29:34.237Z,0.55
2018-12-30T06:32:02.928Z,0.60
2018-12-30T06:34:31.776Z,0.74
2018-12-30T06:37:00.459Z,1.03
2018-12-30T06:39:29.175Z,1.32
2018-12-30T06:41:58.391Z,1.60
2018-12-30T06:44:27.071Z,1.91
2018-12-30T06:46:55.762Z,2.12
2018-12-30T06:49:24.726Z,2.15
2018-12-30T06:51:53.408Z,2.13
2018-12-30T06:54:22.098Z,2.33
2018-12-30T06:56:51.320Z,2.52
2018-12-30T06:59:20.003Z,2.64
2018-12-30T07:01:48.681Z,2.78
2018-12-30T07:04:17.513Z,2.73
2018-12-30T07:06:46.199Z,2.68
2018-12-30T07:09:14.920Z,2.56
2018-12-30T07:11:43.944Z,2.57
2018-12-30T07:14:12.643Z,2.54
2018-12-30T07:16:41.336Z,2.66
2018-12-30T07:19:10.171Z,2.62
2018-12-30T07:21:38.850Z,2.55
2018-12-30T07:24:07.564Z,2.60
2018-12-30T07:26:36.348Z,2.74
2018-12-30T07:29:05.044Z,2.73
2018-12-30T07:31:33.773Z,2.83
2018-12-30T07:34:02.479Z,2.99
2018-12-30T07:36:31.186Z,3.07
2018-12-30T07:38:59.887Z,3.07
2018-12-30T07:41:28.697Z,3.19
2018-12-30T07:43:57.390Z,3.24
2018-12-30T07:46:26.291Z,3.50
2018-12-30T07:48:57.927Z,4.07
2018-12-30T07:51:26.598Z,4.08
2018-12-30T07:53:55.852Z,4.32
2018-12-30T07:56:27.790Z,4.58
2018-12-30T07:58:58.764Z,4.68
2018-12-30T08:01:27.121Z,4.99
2018-12-30T08:03:55.902Z,5.64
2018-12-30T08:06:24.634Z,5.41
2018-12-30T08:08:53.537Z,5.77
2018-12-30T08:11:22.214Z,5.90
2018-12-30T08:13:50.924Z,6.05
2018-12-30T08:16:19.754Z,5.66
2018-12-30T08:18:48.444Z,5.92
2018-12-30T08:21:31.742Z,6.11
2018-12-30T08:24:00.476Z,6.25
2018-12-30T08:26:29.168Z,6.42
2018-12-30T08:28:57.855Z,6.33
2018-12-30T08:31:26.774Z,6.10
2018-12-30T08:33:55.467Z,6.34
2018-12-30T08:36:24.235Z,6.08
2018-12-30T08:38:53.244Z,6.10
2018-12-30T08:41:21.952Z,6.37
2018-12-30T08:43:50.667Z,6.11
2018-12-30T08:46:19.721Z,6.60
2018-12-30T08:48:49.726Z,6.56
2018-12-30T08:51:18.602Z,6.57
2018-12-30T08:53:47.373Z,6.95
2018-12-30T08:56:16.072Z,6.92
2018-12-30T08:58:44.752Z,7.09
2018-12-30T09:01:13.582Z,7.40
2018-12-30T09:03:42.262Z,7.55
2018-12-30T09:06:10.949Z,7.27
2018-12-30T09:08:39.773Z,7.35
2018-12-30T09:11:08.461Z,7.02
2018-12-30T09:13:37.155Z,7.13
2018-12-30T09:16:06.004Z,7.48
2018-12-30T09:18:34.686Z,7.65
2018-12-30T09:21:03.401Z,7.81
2018-12-30T09:23:37.252Z,8.10
2018-12-30T09:26:02.827Z,8.31
2018-12-30T09:28:31.522Z,8.01
2018-12-30T09:31:00.480Z,8.12
2018-12-30T09:33:30.846Z,8.13
2018-12-30T09:35:59.679Z,8.45
2018-12-30T09:38:28.566Z,7.93
2018-12-30T09:40:57.354Z,8.13
2018-12-30T09:43:27.625Z,8.47
2018-12-30T09:45:56.329Z,8.84
2018-12-30T09:48:25.332Z,8.25
2018-12-30T09:50:54.027Z,8.40
2018-12-30T09:53:26.097Z,8.92
2018-12-30T09:55:54.971Z,9.24
2018-12-30T09:58:24.052Z,8.82
2018-12-30T10:00:52.986Z,9.26
2018-12-30T10:03:21.705Z,9.63
2018-12-30T10:05:50.508Z,9.68
2018-12-30T10:08:22.974Z,9.95
2018-12-30T10:10:51.709Z,9.87
2018-12-30T10:13:20.404Z,9.87
2018-12-30T10:15:49.236Z,9.40
2018-12-30T10:18:20.027Z,9.23
2018-12-30T10:20:48.721Z,9.12
2018-12-30T10:23:17.565Z,8.93
2018-12-30T10:25:46.293Z,8.65
2018-12-30T10:28:15.130Z,8.37
2018-12-30T10:30:44.200Z,8.43
2018-12-30T10:33:13.018Z,8.22
2018-12-30T10:35:41.748Z,8.31
2018-12-30T10:38:10.541Z,8.33
2018-12-30T10:40:39.227Z,8.61
2018-12-30T10:43:07.930Z,8.91
2018-12-30T10:45:36.900Z,8.69
2018-12-30T10:48:05.584Z,8.68
2018-12-30T10:50:34.293Z,8.93
2018-12-30T10:53:03.404Z,9.21
2018-12-30T10:55:32.100Z,9.10
2018-12-30T10:58:00.810Z,9.10
2018-12-30T11:00:29.533Z,9.06
2018-12-30T11:02:58.235Z,9.23
2018-12-30T11:05:26.937Z,9.38
2018-12-30T11:07:55.652Z,9.58
2018-12-30T11:10:24.340Z,9.64
2018-12-30T11:12:53.032Z,9.58
2018-12-30T11:15:21.793Z,9.56
2018-12-30T11:17:50.509Z,9.34
2018-12-30T11:20:19.167Z,9.25
2018-12-30T11:22:48.048Z,9.17
2018-12-30T11:25:16.760Z,9.03
2018-12-30T11:27:45.582Z,9.03
2018-12-30T11:30:14.361Z,9.25
2018-12-30T11:32:43.043Z,9.37
2018-12-30T11:35:11.742Z,9.53
2018-12-30T11:37:40.764Z,9.60
2018-12-30T11:40:09.450Z,9.64
2018-12-30T11:42:38.193Z,9.53
2018-12-30T11:45:07.190Z,9.70
2018-12-30T11:47:35.871Z,9.88
2018-12-30T11:50:07.419Z,9.96
2018-12-30T11:52:36.349Z,10.32
2018-12-30T11:55:05.253Z,10.53
2018-12-30T11:57:34.014Z,11.23
2018-12-30T12:00:02.740Z,10.84
2018-12-30T12:02:31.441Z,10.51
2018-12-30T12:05:00.152Z,10.27
2018-12-30T12:07:29.034Z,10.19
2018-12-30T12:09:57.704Z,10.21
2018-12-30T12:12:26.398Z,10.15
2018-12-30T12:14:55.243Z,9.87
2018-12-30T12:17:23.927Z,9.75
2018-12-30T12:19:52.609Z,9.81
2018-12-30T12:22:21.420Z,10.06
2018-12-30T12:24:50.128Z,10.09
2018-12-30T12:27:18.829Z,10.24
2018-12-30T12:29:47.777Z,10.25
2018-12-30T12:32:16.480Z,10.44
2018-12-30T12:34:45.175Z,10.45
2018-12-30T12:37:13.912Z,10.26
2018-12-30T12:39:42.612Z,10.17
2018-12-30T12:42:11.306Z,10.08
2018-12-30T12:44:40.100Z,10.11
2018-12-30T12:47:08.790Z,9.98
2018-12-30T12:49:37.483Z,9.95
2018-12-30T12:52:06.254Z,9.86
2018-12-30T12:54:34.948Z,9.67
2018-12-30T12:57:03.687Z,9.48
2018-12-30T12:59:32.563Z,9.41
2018-12-30T13:02:01.214Z,9.39
2018-12-30T13:04:29.889Z,9.48
2018-12-30T13:06:59.222Z,9.35
2018-12-30T13:09:27.948Z,9.59
2018-12-30T13:11:56.636Z,9.79
2018-12-30T13:14:25.519Z,9.89
2018-12-30T13:16:54.239Z,9.99
2018-12-30T13:19:22.940Z,10.01
2018-12-30T13:21:51.992Z,9.91
2018-12-30T13:24:20.650Z,9.78
2018-12-30T13:26:49.338Z,9.72
2018-12-30T13:29:18.185Z,9.74
2018-12-30T13:31:46.947Z,10.13
2018-12-30T13:34:15.646Z,10.49
2018-12-30T13:36:44.499Z,10.46
2018-12-30T13:39:13.199Z,10.12
2018-12-30T13:41:41.880Z,9.88
2018-12-30T13:44:10.729Z,9.65
2018-12-30T13:46:39.475Z,9.70
2018-12-30T13:49:09.529Z,9.77
2018-12-30T13:51:38.291Z,9.67
2018-12-30T13:54:08.561Z,9.69
2018-12-30T13:56:37.305Z,9.59
2018-12-30T13:59:06.503Z,9.48
2018-12-30T14:01:35.175Z,9.16
2018-12-30T14:04:03.870Z,9.21
2018-12-30T14:06:32.634Z,9.06
2018-12-30T14:12:01.112Z,8.98
2018-12-30T14:14:29.852Z,8.87
2018-12-30T14:16:58.537Z,8.82
2018-12-30T14:19:27.293Z,8.77
2018-12-30T14:21:55.985Z,8.74
2018-12-30T14:24:24.652Z,8.69
2018-12-30T14:26:59.762Z,8.74
2018-12-30T14:29:23.803Z,8.77
2018-12-30T14:31:52.490Z,8.64
2018-12-30T14:34:21.550Z,8.51
2018-12-30T14:36:50.245Z,8.45
2018-12-30T14:39:18.918Z,8.36
2018-12-30T14:41:47.696Z,8.27
2018-12-30T14:44:16.388Z,8.18
2018-12-30T14:46:45.090Z,8.33
2018-12-30T14:49:14.003Z,8.19
2018-12-30T14:51:42.701Z,8.06
2018-12-30T14:54:11.380Z,7.86
2018-12-30T14:56:40.408Z,7.65
2018-12-30T14:59:09.108Z,7.56
2018-12-30T15:01:37.787Z,7.45
2018-12-30T15:04:06.640Z,7.40
2018-12-30T15:06:35.319Z,7.44
2018-12-30T15:09:05.439Z,7.15
2018-12-30T15:11:34.276Z,7.11
2018-12-30T15:14:02.956Z,7.31
2018-12-30T15:16:31.656Z,7.41
2018-12-30T15:19:00.641Z,7.60
2018-12-30T15:21:29.344Z,7.65
2018-12-30T15:23:58.035Z,7.75
2018-12-30T15:26:27.100Z,7.54
2018-12-30T15:28:55.863Z,7.53
2018-12-30T15:31:24.556Z,7.65
2018-12-30T15:33:53.485Z,7.49
2018-12-30T15:36:22.195Z,7.45
2018-12-30T15:38:50.887Z,7.35
2018-12-30T15:41:19.637Z,7.25
2018-12-30T15:43:48.322Z,7.16
2018-12-30T15:46:17.217Z,6.97
2018-12-30T15:48:46.107Z,7.01
2018-12-30T15:51:14.814Z,6.93
2018-12-30T15:53:43.494Z,6.74
2018-12-30T15:56:12.236Z,6.66
2018-12-30T15:58:40.934Z,6.75
2018-12-30T16:01:09.620Z,6.53
2018-12-30T16:03:38.374Z,6.42
2018-12-30T16:06:07.059Z,6.32
2018-12-30T16:08:35.761Z,6.36
2018-12-30T16:11:05.960Z,6.56
2018-12-30T16:13:34.650Z,6.62
2018-12-30T16:16:03.344Z,6.55
2018-12-30T16:18:32.054Z,6.52
2018-12-30T16:21:00.742Z,6.53
2018-12-30T16:23:29.426Z,6.51
2018-12-30T16:25:58.176Z,6.51
2018-12-30T16:28:26.863Z,6.45
2018-12-30T16:30:55.549Z,6.40
2018-12-30T16:33:24.395Z,6.37
2018-12-30T16:35:53.083Z,6.29
2018-12-30T16:38:21.752Z,6.27
2018-12-30T16:40:50.535Z,6.06
2018-12-30T16:43:19.294Z,5.94
2018-12-30T16:45:48.990Z,5.92
2018-12-30T16:48:18.012Z,5.79
2018-12-30T16:50:46.739Z,5.72
2018-12-30T16:53:19.498Z,5.82
2018-12-30T16:55:48.527Z,5.62
2018-12-30T16:58:17.264Z,5.61
2018-12-30T17:00:45.945Z,5.61
2018-12-30T17:03:14.805Z,5.68
2018-12-30T17:05:43.493Z,5.72
2018-12-30T17:08:12.175Z,5.78
2018-12-30T17:10:41.258Z,5.62
2018-12-30T17:13:09.998Z,5.51
2018-12-30T17:15:38.700Z,5.42
2018-12-30T17:18:08.426Z,5.46
2018-12-30T17:20:37.126Z,5.42
2018-12-30T17:23:05.857Z,5.48
2018-12-30T17:25:42.865Z,5.45
2018-12-30T17:31:10.736Z,5.46
2018-12-30T17:33:39.419Z,5.33
2018-12-30T17:36:08.119Z,5.20
2018-12-30T17:38:36.874Z,5.16
2018-12-30T17:41:05.564Z,5.16
2018-12-30T17:43:34.251Z,5.25
2018-12-30T17:46:04.432Z,5.49
2018-12-30T17:48:33.111Z,5.35
2018-12-30T17:51:01.792Z,5.19
2018-12-30T17:53:30.534Z,5.28
2018-12-30T17:55:59.214Z,5.28
2018-12-30T17:58:27.924Z,5.49
2018-12-30T18:00:56.837Z,5.52
2018-12-30T18:03:25.531Z,5.48
2018-12-30T18:05:54.247Z,5.60
2018-12-30T18:08:23.195Z,5.38
2018-12-30T18:10:51.886Z,5.16
2018-12-30T18:13:20.574Z,5.08
2018-12-30T18:15:49.306Z,5.04
2018-12-30T18:18:17.994Z,4.91
2018-12-30T18:20:46.875Z,4.98
2018-12-30T18:23:15.682Z,5.26
2018-12-30T18:25:44.392Z,4.86
2018-12-30T18:28:13.078Z,4.65
2018-12-30T18:30:42.004Z,4.67
2018-12-30T18:33:10.708Z,4.44
2018-12-30T18:35:39.384Z,4.36
2018-12-30T18:38:08.208Z,4.30
2018-12-30T18:40:36.911Z,4.41
2018-12-30T18:43:05.599Z,4.41
2018-12-30T18:45:34.429Z,4.40
2018-12-30T18:48:03.113Z,4.35
2018-12-30T18:50:31.824Z,4.26
2018-12-30T18:53:00.802Z,4.42
2018-12-30T18:55:29.507Z,4.33
2018-12-30T18:57:58.195Z,4.37
2018-12-30T19:00:29.987Z,4.41
2018-12-30T19:02:58.673Z,4.41
2018-12-30T19:05:28.329Z,4.42
2018-12-30T19:07:57.211Z,4.46
2018-12-30T19:10:25.888Z,4.53
2018-12-30T19:12:54.600Z,4.51
2018-12-30T19:15:23.357Z,4.50
2018-12-30T19:17:52.118Z,4.54
2018-12-30T19:20:20.814Z,4.69
2018-12-30T19:22:49.579Z,4.87
2018-12-30T19:25:18.260Z,4.97
2018-12-30T19:27:46.956Z,4.96
2018-12-30T19:30:15.912Z,5.00
2018-12-30T19:32:44.590Z,4.98
2018-12-30T19:35:13.272Z,5.05
2018-12-30T19:37:42.187Z,4.98
2018-12-30T19:40:11.533Z,4.90
2018-12-30T19:42:40.268Z,4.79
2018-12-30T19:45:09.226Z,4.82
2018-12-30T19:47:37.903Z,4.67
2018-12-30T19:50:07.397Z,4.75
2018-12-30T19:52:36.417Z,4.91
2018-12-30T19:55:05.306Z,4.89
2018-12-30T19:57:33.994Z,4.72
2018-12-30T20:00:02.748Z,4.52
2018-12-30T20:02:31.438Z,4.44
2018-12-30T20:05:00.176Z,4.51
2018-12-30T20:07:29.053Z,4.46
2018-12-30T20:09:57.748Z,4.40
2018-12-30T20:12:26.491Z,4.27
2018-12-30T20:14:55.353Z,4.25
2018-12-30T20:17:24.036Z,4.38
2018-12-30T20:19:53.065Z,4.24
2018-12-30T20:22:21.843Z,4.08
2018-12-30T20:24:50.505Z,4.02
2018-12-30T20:27:19.198Z,3.95
2018-12-30T20:29:48.323Z,3.94
2018-12-30T20:32:17.004Z,3.93
2018-12-30T20:34:45.698Z,3.96
2018-12-30T20:37:14.606Z,3.98
2018-12-30T20:39:43.291Z,4.02
2018-12-30T20:42:11.978Z,4.00
2018-12-30T20:44:40.813Z,4.00
2018-12-30T20:47:09.533Z,4.04
2018-12-30T20:49:38.235Z,4.04
2018-12-30T20:52:07.235Z,3.97
2018-12-30T20:54:35.936Z,4.00
2018-12-30T20:57:04.727Z,3.99
2018-12-30T20:59:33.522Z,3.96
2018-12-30T21:02:02.221Z,4.08
2018-12-30T21:04:30.990Z,4.11
2018-12-30T21:06:59.855Z,3.99
2018-12-30T21:09:28.536Z,3.97
2018-12-30T21:11:57.238Z,3.87
2018-12-30T21:14:26.174Z,3.81
2018-12-30T21:16:54.881Z,3.68
2018-12-30T21:19:23.580Z,3.72
2018-12-30T21:21:52.642Z,3.76
2018-12-30T21:24:21.336Z,3.72
2018-12-30T21:26:50.020Z,3.62
2018-12-30T21:29:18.921Z,3.67
2018-12-30T21:31:47.623Z,3.63
2018-12-30T21:34:16.361Z,3.56
2018-12-30T21:36:45.394Z,3.61
2018-12-30T21:39:14.096Z,3.62
2018-12-30T21:41:42.844Z,3.58
2018-12-30T21:44:11.763Z,3.52
2018-12-30T21:46:40.481Z,3.69
2018-12-30T21:49:09.179Z,3.69
2018-12-30T21:51:38.009Z,3.65
2018-12-30T21:54:06.686Z,3.65
2018-12-30T21:56:35.376Z,3.64
2018-12-30T21:59:04.627Z,3.59
2018-12-30T22:01:33.383Z,3.60
2018-12-30T22:04:02.084Z,3.58
2018-12-30T22:06:30.874Z,3.63
2018-12-30T22:08:59.546Z,3.72
2018-12-30T22:11:28.234Z,3.80
2018-12-30T22:13:57.094Z,3.80
2018-12-30T22:16:25.887Z,3.56
2018-12-30T22:18:54.550Z,3.51
2018-12-30T22:21:23.599Z,3.38
2018-12-30T22:23:52.288Z,3.36
2018-12-30T22:26:20.964Z,3.40
2018-12-30T22:28:49.990Z,3.44
2018-12-30T22:31:18.655Z,3.46
2018-12-30T22:33:47.341Z,3.34
2018-12-30T22:36:16.091Z,3.30
2018-12-30T22:38:44.861Z,3.18
2018-12-30T22:41:13.537Z,3.23
2018-12-30T22:43:42.251Z,3.43
2018-12-30T22:46:10.954Z,3.40
2018-12-30T22:48:39.643Z,3.37
2018-12-30T22:51:08.642Z,3.48
2018-12-30T22:53:37.333Z,3.39
2018-12-30T22:56:06.018Z,3.42
2018-12-30T22:58:35.004Z,3.43
2018-12-30T23:01:05.380Z,3.37
2018-12-30T23:03:34.155Z,3.17
2018-12-30T23:06:04.237Z,3.00
2018-12-30T23:08:32.937Z,2.95
2018-12-30T23:11:01.616Z,2.94
2018-12-30T23:13:30.636Z,3.00
2018-12-30T23:15:59.303Z,3.09
2018-12-30T23:18:27.985Z,3.04
2018-12-30T23:20:56.857Z,2.91
2018-12-30T23:23:25.528Z,2.84
2018-12-30T23:25:54.243Z,2.83
2018-12-30T23:28:23.082Z,2.88
2018-12-30T23:30:51.769Z,2.76
2018-12-30T23:33:21.943Z,2.87
2018-12-30T23:35:50.985Z,2.85
2018-12-30T23:38:19.666Z,2.76
2018-12-30T23:40:48.360Z,2.93
2018-12-30T23:43:17.224Z,2.90
2018-12-30T23:45:45.935Z,2.81
2018-12-30T23:48:14.606Z,2.76
2018-12-30T23:50:43.652Z,2.68
2018-12-30T23:53:12.336Z,2.65
2018-12-30T23:55:41.031Z,2.71
2018-12-30T23:58:10.023Z,2.78
